createdAt,value
2019-02-21T00:00:24.146Z,101177.75
2019-02-21T00:02:47.590Z,101177.50
2019-02-21T00:05:14.449Z,101190.13
2019-02-21T00:07:41.198Z,101190.21
2019-02-21T00:10:08.106Z,101192.94
2019-02-21T00:12:35.015Z,101196.00
2019-02-21T00:15:02.115Z,101189.53
2019-02-21T00:17:30.417Z,101194.23
2019-02-21T00:19:57.542Z,101198.28
2019-02-21T00:22:24.356Z,101200.95
2019-02-21T00:24:51.158Z,101205.80
2019-02-21T00:27:17.824Z,101204.70
2019-02-21T00:29:44.530Z,101205.73
2019-02-21T00:32:11.216Z,101202.73
2019-02-21T00:34:38.147Z,101204.16
2019-02-21T00:37:05.118Z,101212.41
2019-02-21T00:39:32.239Z,101206.24
2019-02-21T00:41:59.358Z,101200.19
2019-02-21T00:44:26.462Z,101199.88
2019-02-21T00:46:54.679Z,101202.90
2019-02-21T00:49:21.851Z,101207.28
2019-02-21T00:51:48.973Z,101203.40
2019-02-21T00:55:12.335Z,101206.55
2019-02-21T00:57:39.062Z,101216.59
2019-02-21T01:00:11.456Z,101215.34
2019-02-21T01:03:34.663Z,101218.46
2019-02-21T01:06:01.768Z,101214.11
2019-02-21T01:08:28.876Z,101224.21
2019-02-21T01:10:55.511Z,101221.19
2019-02-21T01:13:22.211Z,101222.12
2019-02-21T01:15:48.783Z,101220.41
2019-02-21T01:18:15.433Z,101220.42
2019-02-21T01:20:42.126Z,101222.06
2019-02-21T01:23:08.889Z,101226.84
2019-02-21T01:25:35.452Z,101229.05
2019-02-21T01:28:02.258Z,101230.41
2019-02-21T01:30:29.013Z,101226.84
2019-02-21T01:32:55.776Z,101227.85
2019-02-21T01:35:22.413Z,101227.01
2019-02-21T01:38:45.478Z,101230.90
2019-02-21T01:41:12.507Z,101223.50
2019-02-21T01:43:39.179Z,101220.86
2019-02-21T01:46:05.732Z,101213.47
2019-02-21T01:48:33.735Z,101209.67
2019-02-21T01:51:00.399Z,101215.81
2019-02-21T01:53:27.141Z,101215.03
2019-02-21T01:55:53.745Z,101220.67
2019-02-21T01:58:21.525Z,101219.36
2019-02-21T02:00:48.150Z,101221.55
2019-02-21T02:03:14.898Z,101224.64
2019-02-21T02:05:41.564Z,101212.95
2019-02-21T02:08:08.228Z,101210.77
2019-02-21T02:10:34.822Z,101211.69
2019-02-21T02:13:01.495Z,101203.84
2019-02-21T02:15:28.338Z,101200.80
2019-02-21T02:17:54.889Z,101200.41
2019-02-21T02:20:21.534Z,101215.16
2019-02-21T02:22:48.325Z,101217.33
2019-02-21T02:25:14.937Z,101216.02
2019-02-21T02:27:41.515Z,101208.62
2019-02-21T02:30:08.504Z,101211.72
2019-02-21T02:32:35.161Z,101215.63
2019-02-21T02:35:03.026Z,101215.62
2019-02-21T02:37:29.723Z,101204.77
2019-02-21T02:39:56.400Z,101206.95
2019-02-21T02:42:22.977Z,101212.59
2019-02-21T02:44:49.557Z,101218.62
2019-02-21T02:47:16.116Z,101217.78
2019-02-21T02:49:42.701Z,101217.80
2019-02-21T02:52:09.342Z,101213.44
2019-02-21T02:54:35.982Z,101209.98
2019-02-21T02:57:02.656Z,101210.83
2019-02-21T02:59:40.388Z,101210.84
2019-02-21T03:01:57.986Z,101216.05
2019-02-21T03:04:24.767Z,101212.13
2019-02-21T03:06:51.599Z,101207.79
2019-02-21T03:09:18.275Z,101207.78
2019-02-21T03:11:44.912Z,101210.39
2019-02-21T03:14:11.493Z,101206.04
2019-02-21T03:16:38.186Z,101217.30
2019-02-21T03:19:04.907Z,101221.67
2019-02-21T03:21:34.848Z,101213.88
2019-02-21T03:24:04.472Z,101216.45
2019-02-21T03:26:31.071Z,101222.96
2019-02-21T03:28:57.714Z,101222.11
2019-02-21T03:31:24.298Z,101219.02
2019-02-21T03:33:51.070Z,101220.72
2019-02-21T03:36:19.026Z,101218.17
2019-02-21T03:38:46.408Z,101219.91
2019-02-21T03:41:12.988Z,101211.68
2019-02-21T03:43:39.714Z,101211.22
2019-02-21T03:46:06.280Z,101212.55
2019-02-21T03:48:32.970Z,101207.75
2019-02-21T03:50:59.544Z,101213.34
2019-02-21T03:53:26.133Z,101208.53
2019-02-21T03:55:53.053Z,101205.52
2019-02-21T03:58:19.822Z,101205.97
2019-02-21T04:00:46.750Z,101204.21
2019-02-21T04:03:13.602Z,101196.38
2019-02-21T04:05:40.902Z,101197.65
2019-02-21T04:08:07.551Z,101192.44
2019-02-21T04:10:35.343Z,101198.07
2019-02-21T04:13:02.407Z,101193.26
2019-02-21T04:15:29.494Z,101193.80
2019-02-21T04:17:57.446Z,101192.92
2019-02-21T04:20:24.111Z,101188.50
2019-02-21T04:22:50.809Z,101189.35
2019-02-21T04:25:17.369Z,101187.56
2019-02-21T04:27:44.098Z,101183.65
2019-02-21T04:30:10.744Z,101184.11
2019-02-21T04:32:37.297Z,101189.74
2019-02-21T04:35:04.817Z,101192.31
2019-02-21T04:37:31.744Z,101184.06
2019-02-21T04:39:58.535Z,101186.66
2019-02-21T04:42:25.178Z,101178.81
2019-02-21T04:44:52.944Z,101178.34
2019-02-21T04:47:19.537Z,101180.09
2019-02-21T04:49:46.085Z,101179.73
2019-02-21T04:52:12.664Z,101175.95
2019-02-21T04:54:39.242Z,101176.81
2019-02-21T04:57:05.881Z,101181.58
2019-02-21T04:59:32.835Z,101173.75
2019-02-21T05:01:59.459Z,101181.59
2019-02-21T05:04:26.015Z,101178.96
2019-02-21T05:06:52.945Z,101179.31
2019-02-21T05:09:19.561Z,101176.21
2019-02-21T05:11:46.195Z,101169.66
2019-02-21T05:14:12.842Z,101174.12
2019-02-21T05:16:39.636Z,101171.05
2019-02-21T05:19:06.314Z,101169.22
2019-02-21T05:21:33.045Z,101174.93
2019-02-21T05:23:59.622Z,101176.77
2019-02-21T05:26:28.260Z,101176.30
2019-02-21T05:28:54.906Z,101175.80
2019-02-21T05:31:23.533Z,101170.55
2019-02-21T05:33:52.238Z,101177.92
2019-02-21T05:36:20.732Z,101173.95
2019-02-21T05:38:49.303Z,101172.22
2019-02-21T05:41:17.933Z,101173.09
2019-02-21T05:43:46.440Z,101173.98
2019-02-21T05:46:15.487Z,101171.39
2019-02-21T05:48:44.088Z,101175.27
2019-02-21T05:51:12.685Z,101166.49
2019-02-21T05:53:41.207Z,101165.10
2019-02-21T05:56:09.758Z,101171.14
2019-02-21T05:58:38.248Z,101166.34
2019-02-21T06:01:07.045Z,101171.09
2019-02-21T06:03:36.171Z,101173.63
2019-02-21T06:06:05.154Z,101173.63
2019-02-21T06:08:33.703Z,101174.05
2019-02-21T06:11:02.215Z,101174.00
2019-02-21T06:13:30.790Z,101182.31
2019-02-21T06:15:59.430Z,101182.25
2019-02-21T06:18:29.109Z,101187.86
2019-02-21T06:20:57.913Z,101189.24
2019-02-21T06:23:26.515Z,101187.41
2019-02-21T06:25:58.828Z,101187.51
2019-02-21T06:28:27.001Z,101189.23
2019-02-21T06:30:55.517Z,101184.52
2019-02-21T06:33:22.163Z,101198.80
2019-02-21T06:36:44.998Z,101196.94
2019-02-21T06:39:11.772Z,101190.38
2019-02-21T06:41:38.474Z,101192.66
2019-02-21T06:44:05.192Z,101185.20
2019-02-21T06:46:31.786Z,101181.32
2019-02-21T06:48:58.482Z,101191.34
2019-02-21T06:51:25.113Z,101188.73
2019-02-21T06:53:53.159Z,101188.61
2019-02-21T06:56:21.551Z,101186.94
2019-02-21T06:58:48.098Z,101190.03
2019-02-21T07:01:25.409Z,101193.49
2019-02-21T07:03:43.361Z,101190.42
2019-02-21T07:06:09.990Z,101192.50
2019-02-21T07:08:36.547Z,101178.59
2019-02-21T07:11:06.331Z,101185.05
2019-02-21T07:13:31.793Z,101186.28
2019-02-21T07:15:58.683Z,101186.27
2019-02-21T07:18:25.525Z,101196.41
2019-02-21T07:20:52.409Z,101196.03
2019-02-21T07:23:19.437Z,101187.34
2019-02-21T07:25:47.707Z,101190.43
2019-02-21T07:28:15.957Z,101189.50
2019-02-21T07:30:43.100Z,101195.44
2019-02-21T07:33:10.019Z,101196.70
2019-02-21T07:35:36.684Z,101199.73
2019-02-21T07:38:03.582Z,101197.17
2019-02-21T07:40:30.302Z,101204.00
2019-02-21T07:42:58.728Z,101202.70
2019-02-21T07:45:25.414Z,101205.22
2019-02-21T07:47:52.704Z,101206.05
2019-02-21T07:50:19.546Z,101202.14
2019-02-21T07:52:46.127Z,101199.40
2019-02-21T07:55:13.033Z,101202.83
2019-02-21T07:57:39.900Z,101202.36
2019-02-21T08:00:10.888Z,101202.58
2019-02-21T08:02:37.477Z,101203.34
2019-02-21T08:05:06.702Z,101199.86
2019-02-21T08:07:33.316Z,101207.21
2019-02-21T08:09:59.905Z,101205.96
2019-02-21T08:12:26.534Z,101209.28
2019-02-21T08:14:56.149Z,101211.45
2019-02-21T08:17:21.921Z,101207.13
2019-02-21T08:19:48.550Z,101202.16
2019-02-21T08:22:15.292Z,101208.61
2019-02-21T08:24:42.071Z,101199.55
2019-02-21T08:27:08.688Z,101201.70
2019-02-21T08:29:35.271Z,101204.62
2019-02-21T08:32:01.892Z,101203.70
2019-02-21T08:34:30.533Z,101210.30
2019-02-21T08:36:57.333Z,101206.80
2019-02-21T08:39:24.140Z,101216.56
2019-02-21T08:41:51.091Z,101208.09
2019-02-21T08:44:17.847Z,101213.79
2019-02-21T08:46:44.408Z,101211.53
2019-02-21T08:49:11.159Z,101211.34
2019-02-21T08:51:37.996Z,101213.95
2019-02-21T08:54:05.654Z,101213.44
2019-02-21T08:56:32.883Z,101215.75
2019-02-21T08:58:59.442Z,101215.86
2019-02-21T09:01:26.081Z,101212.63
2019-02-21T09:03:53.000Z,101206.87
2019-02-21T09:06:19.682Z,101210.70
2019-02-21T09:08:46.213Z,101201.83
2019-02-21T09:11:14.377Z,101201.56
2019-02-21T09:13:41.806Z,101204.73
2019-02-21T09:16:09.087Z,101202.07
2019-02-21T09:18:35.910Z,101204.20
2019-02-21T09:21:02.755Z,101194.98
2019-02-21T09:23:30.773Z,101198.88
2019-02-21T09:25:57.537Z,101197.26
2019-02-21T09:28:24.404Z,101199.37
2019-02-21T09:31:47.633Z,101197.02
2019-02-21T09:34:21.101Z,101201.45
2019-02-21T09:36:42.941Z,101194.83
2019-02-21T09:39:09.907Z,101193.97
2019-02-21T09:42:33.139Z,101195.69
2019-02-21T09:44:59.882Z,101187.39
2019-02-21T09:47:26.519Z,101191.67
2019-02-21T09:49:53.309Z,101188.06
2019-02-21T09:52:20.066Z,101191.03
2019-02-21T09:54:47.610Z,101190.42
2019-02-21T09:57:14.598Z,101186.96
2019-02-21T09:59:41.343Z,101187.43
2019-02-21T10:02:08.013Z,101190.05
2019-02-21T10:05:32.498Z,101185.13
2019-02-21T10:07:59.306Z,101179.08
2019-02-21T10:10:25.941Z,101176.25
2019-02-21T10:12:52.875Z,101165.34
2019-02-21T10:16:15.650Z,101167.08
2019-02-21T10:18:42.498Z,101165.33
2019-02-21T10:22:06.350Z,101165.03
2019-02-21T10:24:33.007Z,101164.12
2019-02-21T10:27:18.672Z,101140.41
2019-02-21T10:29:45.314Z,101136.53
2019-02-21T10:32:12.081Z,101141.83
2019-02-21T10:34:43.120Z,101131.27
2019-02-21T10:37:07.266Z,101130.45
2019-02-21T10:39:33.831Z,101133.13
2019-02-21T10:42:00.576Z,101125.75
2019-02-21T10:44:27.185Z,101122.97
2019-02-21T10:46:53.878Z,101125.95
2019-02-21T10:49:20.725Z,101117.28
2019-02-21T10:51:47.706Z,101109.39
2019-02-21T10:54:14.476Z,101103.19
2019-02-21T10:56:41.202Z,101099.72
2019-02-21T10:59:08.016Z,101098.37
2019-02-21T11:01:34.637Z,101095.19
2019-02-21T11:04:01.204Z,101091.23
2019-02-21T11:06:28.031Z,101088.39
2019-02-21T11:08:54.695Z,101085.71
2019-02-21T11:11:21.631Z,101082.05
2019-02-21T11:13:48.399Z,101081.63
2019-02-21T11:16:15.100Z,101081.48
2019-02-21T11:18:43.033Z,101076.45
2019-02-21T11:21:10.791Z,101077.22
2019-02-21T11:23:37.434Z,101079.53
2019-02-21T11:26:04.085Z,101075.91
2019-02-21T11:28:30.770Z,101071.86
2019-02-21T11:30:57.570Z,101060.02
2019-02-21T11:33:24.310Z,101054.08
2019-02-21T11:35:51.227Z,101056.11
2019-02-21T11:38:17.843Z,101062.36
2019-02-21T11:40:44.600Z,101056.14
2019-02-21T11:43:11.225Z,101055.56
2019-02-21T11:45:37.865Z,101049.34
2019-02-21T11:48:04.915Z,101051.20
2019-02-21T11:50:31.572Z,101049.36
2019-02-21T11:52:58.288Z,101048.35
2019-02-21T11:55:25.181Z,101045.44
2019-02-21T11:57:52.097Z,101043.15
2019-02-21T12:00:24.623Z,101039.77
2019-02-21T12:02:51.497Z,101035.19
2019-02-21T12:05:30.152Z,101028.94
2019-02-21T12:07:47.660Z,101032.04
2019-02-21T12:10:14.363Z,101030.91
2019-02-21T12:12:41.295Z,101036.14
2019-02-21T12:15:10.960Z,101025.83
2019-02-21T12:17:37.888Z,101028.58
2019-02-21T12:20:09.379Z,101022.89
2019-02-21T12:22:36.297Z,101014.96
2019-02-21T12:25:09.013Z,101023.93
2019-02-21T12:27:35.737Z,101024.42
2019-02-21T12:30:07.309Z,101021.80
2019-02-21T12:32:33.974Z,101020.20
2019-02-21T12:35:00.715Z,101017.36
2019-02-21T12:37:27.323Z,101013.62
2019-02-21T12:39:57.022Z,101012.27
2019-02-21T12:42:23.803Z,101007.23
2019-02-21T12:44:52.025Z,101010.54
2019-02-21T12:47:18.817Z,101007.66
2019-02-21T12:49:45.376Z,101006.81
2019-02-21T12:52:12.022Z,101003.54
2019-02-21T12:54:38.730Z,101006.52
2019-02-21T12:57:05.341Z,101005.30
2019-02-21T12:59:32.155Z,101004.91
2019-02-21T13:01:58.899Z,101001.18
2019-02-21T13:04:25.656Z,100996.33
2019-02-21T13:06:52.331Z,101001.51
2019-02-21T13:09:19.041Z,100995.16
2019-02-21T13:11:45.646Z,100996.95
2019-02-21T13:14:12.210Z,100990.34
2019-02-21T13:16:38.963Z,100995.88
2019-02-21T13:19:05.847Z,100988.71
2019-02-21T13:21:32.465Z,100983.20
2019-02-21T13:23:59.155Z,100992.08
2019-02-21T13:26:25.840Z,100991.33
2019-02-21T13:28:52.510Z,100994.77
2019-02-21T13:31:20.451Z,100994.86
2019-02-21T13:33:47.072Z,100988.64
2019-02-21T13:36:13.819Z,100992.44
2019-02-21T13:38:40.447Z,100995.81
2019-02-21T13:41:07.212Z,100991.52
2019-02-21T13:43:34.996Z,100989.63
2019-02-21T13:46:01.632Z,100998.83
2019-02-21T13:48:28.300Z,100994.38
2019-02-21T13:50:54.881Z,101001.57
2019-02-21T13:53:21.706Z,101000.20
2019-02-21T13:55:50.881Z,100990.61
2019-02-21T13:58:16.840Z,100998.03
2019-02-21T14:00:43.512Z,100996.11
2019-02-21T14:03:10.187Z,100994.05
2019-02-21T14:05:36.809Z,100995.19
2019-02-21T14:08:03.629Z,100996.20
2019-02-21T14:10:30.421Z,100995.91
2019-02-21T14:12:57.089Z,100999.41
2019-02-21T14:15:28.008Z,100996.37
2019-02-21T14:17:54.744Z,100992.83
2019-02-21T14:20:21.434Z,100992.92
2019-02-21T14:22:48.004Z,100992.05
2019-02-21T14:25:14.709Z,100992.11
2019-02-21T14:27:41.720Z,100990.92
2019-02-21T14:30:13.263Z,100988.12
2019-02-21T14:32:39.836Z,100993.69
2019-02-21T14:36:14.764Z,100990.25
2019-02-21T14:38:31.636Z,100991.50
2019-02-21T14:40:59.419Z,100988.19
2019-02-21T14:43:26.058Z,100988.09
2019-02-21T14:45:52.882Z,100992.14
2019-02-21T14:48:19.655Z,100995.16
2019-02-21T14:50:46.596Z,100994.66
2019-02-21T14:53:13.165Z,100990.63
2019-02-21T14:55:39.853Z,100980.21
2019-02-21T14:58:06.608Z,100983.66
2019-02-21T15:00:33.607Z,100978.48
2019-02-21T15:03:00.285Z,100973.22
2019-02-21T15:05:27.112Z,100975.55
2019-02-21T15:07:54.000Z,100983.74
2019-02-21T15:10:21.549Z,100973.22
2019-02-21T15:12:49.479Z,100973.67
2019-02-21T15:15:22.190Z,100968.44
2019-02-21T15:17:49.110Z,100966.09
2019-02-21T15:20:17.210Z,100966.88
2019-02-21T15:22:44.176Z,100966.48
2019-02-21T15:25:11.206Z,100961.14
2019-02-21T15:27:38.352Z,100960.31
2019-02-21T15:30:13.316Z,100961.56
2019-02-21T15:32:40.335Z,100962.59
2019-02-21T15:35:07.337Z,100964.08
2019-02-21T15:37:34.023Z,100952.52
2019-02-21T15:40:00.648Z,100946.74
2019-02-21T15:42:27.417Z,100951.67
2019-02-21T15:44:54.088Z,100951.03
2019-02-21T15:47:20.825Z,100947.56
2019-02-21T15:49:47.486Z,100950.06
2019-02-21T15:52:21.892Z,100953.30
2019-02-21T15:54:42.683Z,100944.23
2019-02-21T15:57:09.316Z,100957.14
2019-02-21T15:59:36.196Z,100947.32
2019-02-21T16:02:02.957Z,100953.74
2019-02-21T16:04:29.518Z,100954.26
2019-02-21T16:06:56.173Z,100956.32
2019-02-21T16:09:25.116Z,100955.72
2019-02-21T16:11:51.755Z,100947.81
2019-02-21T16:15:16.369Z,100953.50
2019-02-21T16:17:44.533Z,100949.12
2019-02-21T16:21:07.659Z,100939.14
2019-02-21T16:23:34.468Z,100939.88
2019-02-21T16:26:02.419Z,100948.59
2019-02-21T16:28:29.580Z,100945.07
2019-02-21T16:30:56.268Z,100946.44
2019-02-21T16:33:22.923Z,100949.30
2019-02-21T16:35:50.271Z,100952.22
2019-02-21T16:38:17.216Z,100944.01
2019-02-21T16:40:44.111Z,100954.38
2019-02-21T16:43:11.080Z,100957.54
2019-02-21T16:45:43.394Z,100966.27
2019-02-21T16:48:06.154Z,100963.17
2019-02-21T16:50:32.857Z,100964.28
2019-02-21T16:52:59.511Z,100959.16
2019-02-21T16:55:26.588Z,100960.83
2019-02-21T16:57:53.384Z,100961.31
2019-02-21T17:00:22.487Z,100959.34
2019-02-21T17:02:49.628Z,100956.02
2019-02-21T17:05:16.727Z,100960.92
2019-02-21T17:07:43.590Z,100958.55
2019-02-21T17:10:13.651Z,100949.87
2019-02-21T17:12:40.426Z,100960.64
2019-02-21T17:15:11.235Z,100956.78
2019-02-21T17:17:38.024Z,100951.54
2019-02-21T17:20:10.378Z,100947.34
2019-02-21T17:22:37.204Z,100947.22
2019-02-21T17:25:08.378Z,100949.30
2019-02-21T17:27:35.298Z,100942.08
2019-02-21T17:30:07.884Z,100947.22
2019-02-21T17:32:34.761Z,100940.20
2019-02-21T17:35:01.635Z,100946.34
2019-02-21T17:37:28.559Z,100947.13
2019-02-21T17:39:56.463Z,100947.17
2019-02-21T17:43:38.525Z,100948.05
2019-02-21T17:46:05.525Z,100951.39
2019-02-21T17:48:32.345Z,100951.20
2019-02-21T17:50:59.161Z,100937.50
2019-02-21T17:53:26.997Z,100935.30
2019-02-21T17:55:53.974Z,100937.12
2019-02-21T17:58:20.753Z,100938.44
2019-02-21T18:00:47.628Z,100939.77
2019-02-21T18:03:14.440Z,100937.50
2019-02-21T18:05:41.056Z,100926.75
2019-02-21T18:08:09.823Z,100935.05
2019-02-21T18:10:37.642Z,100927.09
2019-02-21T18:13:04.782Z,100932.33
2019-02-21T18:15:33.108Z,100940.86
2019-02-21T18:18:03.296Z,100936.37
2019-02-21T18:20:29.975Z,100934.29
2019-02-21T18:22:56.935Z,100935.63
2019-02-21T18:25:29.199Z,100935.23
2019-02-21T18:27:56.001Z,100937.22
2019-02-21T18:30:22.976Z,100937.67
2019-02-21T18:32:49.882Z,100935.05
2019-02-21T18:35:16.857Z,100935.03
2019-02-21T18:37:47.444Z,100925.94
2019-02-21T18:40:20.893Z,100926.84
2019-02-21T18:42:47.621Z,100919.56
2019-02-21T18:45:14.475Z,100923.48
2019-02-21T18:47:41.212Z,100918.48
2019-02-21T18:50:11.165Z,100921.44
2019-02-21T18:52:37.986Z,100918.54
2019-02-21T18:55:06.683Z,100923.23
2019-02-21T18:57:36.491Z,100922.57
2019-02-21T19:00:08.472Z,100920.89
2019-02-21T19:02:36.056Z,100915.58
2019-02-21T19:05:05.786Z,100917.02
2019-02-21T19:07:32.575Z,100910.58
2019-02-21T19:10:02.173Z,100912.23
2019-02-21T19:12:29.023Z,100916.86
2019-02-21T19:14:55.823Z,100914.76
2019-02-21T19:17:22.489Z,100907.66
2019-02-21T19:19:49.098Z,100916.70
2019-02-21T19:22:17.128Z,100913.77
2019-02-21T19:24:43.699Z,100916.64
2019-02-21T19:27:10.397Z,100920.93
2019-02-21T19:29:37.104Z,100920.84
2019-02-21T19:32:04.969Z,100910.38
2019-02-21T19:34:32.237Z,100912.29
2019-02-21T19:36:59.237Z,100906.72
2019-02-21T19:39:26.294Z,100912.56
2019-02-21T19:41:53.989Z,100907.98
2019-02-21T19:44:22.351Z,100913.31
2019-02-21T19:46:49.462Z,100910.97
2019-02-21T19:49:16.695Z,100907.80
2019-02-21T19:51:43.497Z,100906.83
2019-02-21T19:54:10.336Z,100911.80
2019-02-21T19:56:46.021Z,100910.20
2019-02-21T19:59:15.232Z,100910.97
2019-02-21T20:01:42.727Z,100913.74
2019-02-21T20:04:09.757Z,100904.70
2019-02-21T20:06:37.527Z,100902.36
2019-02-21T20:09:04.609Z,100905.84
2019-02-21T20:11:42.556Z,100907.48
2019-02-21T20:14:34.315Z,100912.56
2019-02-21T20:17:02.274Z,100906.27
2019-02-21T20:19:44.162Z,100905.64
2019-02-21T20:22:20.697Z,100906.73
2019-02-21T20:24:53.160Z,100904.97
2019-02-21T20:27:22.623Z,100906.19
2019-02-21T20:29:49.461Z,100913.72
2019-02-21T20:32:17.561Z,100908.18
2019-02-21T20:34:44.352Z,100915.41
2019-02-21T20:37:11.469Z,100915.27
2019-02-21T20:39:38.374Z,100913.88
2019-02-21T20:42:07.175Z,100919.22
2019-02-21T20:44:34.350Z,100915.87
2019-02-21T20:47:01.194Z,100922.42
2019-02-21T20:49:28.213Z,100923.08
2019-02-21T20:51:55.335Z,100923.20
2019-02-21T20:54:22.668Z,100924.81
2019-02-21T20:56:50.205Z,100930.62
2019-02-21T20:59:30.069Z,100938.98
2019-02-21T21:02:00.852Z,100926.34
2019-02-21T21:04:27.982Z,100934.15
2019-02-21T21:06:55.343Z,100944.30
2019-02-21T21:09:22.192Z,100940.38
2019-02-21T21:11:49.486Z,100948.14
2019-02-21T21:14:16.267Z,100959.93
2019-02-21T21:16:46.359Z,100960.83
2019-02-21T21:19:14.121Z,100968.23
2019-02-21T21:21:40.796Z,100974.94
2019-02-21T21:24:08.027Z,100977.55
2019-02-21T21:26:34.684Z,100977.15
2019-02-21T21:29:01.381Z,100981.52
2019-02-21T21:31:28.098Z,100985.39
2019-02-21T21:33:55.147Z,100986.22
2019-02-21T21:36:23.548Z,100989.34
2019-02-21T21:38:54.317Z,100995.86
2019-02-21T21:41:21.517Z,100999.30
2019-02-21T21:43:48.191Z,101002.81
2019-02-21T21:46:14.893Z,101012.31
2019-02-21T21:48:42.769Z,101022.73
2019-02-21T21:51:10.025Z,101020.13
2019-02-21T21:53:37.475Z,101020.09
2019-02-21T21:56:04.341Z,101033.50
2019-02-21T21:58:31.078Z,101026.59
2019-02-21T22:01:00.236Z,101036.13
2019-02-21T22:03:26.945Z,101034.83
2019-02-21T22:05:53.779Z,101034.35
2019-02-21T22:08:20.613Z,101032.16
2019-02-21T22:10:47.606Z,101037.80
2019-02-21T22:13:14.726Z,101049.03
2019-02-21T22:15:41.821Z,101050.78
2019-02-21T22:18:08.843Z,101055.05
2019-02-21T22:20:35.964Z,101055.05
2019-02-21T22:23:03.097Z,101060.56
2019-02-21T22:25:31.236Z,101064.98
2019-02-21T22:27:58.549Z,101064.94
2019-02-21T22:30:25.724Z,101075.45
2019-02-21T22:32:53.005Z,101079.67
2019-02-21T22:35:20.091Z,101074.45
2019-02-21T22:37:47.308Z,101083.56
2019-02-21T22:40:16.629Z,101085.77
2019-02-21T22:42:44.794Z,101086.59
2019-02-21T22:45:12.251Z,101096.52
2019-02-21T22:47:39.473Z,101097.00
2019-02-21T22:50:11.946Z,101100.86
2019-02-21T22:52:39.018Z,101103.03
2019-02-21T22:55:10.152Z,101107.27
2019-02-21T22:57:36.481Z,101105.12
2019-02-21T23:00:09.114Z,101111.50
2019-02-21T23:02:38.063Z,101123.56
2019-02-21T23:05:10.762Z,101127.91
2019-02-21T23:07:38.318Z,101142.52
2019-02-21T23:10:05.466Z,101137.36
2019-02-21T23:12:33.095Z,101146.94
2019-02-21T23:15:00.464Z,101146.08
2019-02-21T23:17:27.813Z,101145.60
2019-02-21T23:19:55.043Z,101154.20
2019-02-21T23:22:22.152Z,101160.69
2019-02-21T23:24:49.290Z,101160.49
2019-02-21T23:27:16.411Z,101166.09
2019-02-21T23:29:43.559Z,101173.72
2019-02-21T23:32:10.720Z,101179.77
2019-02-21T23:34:39.388Z,101189.44
2019-02-21T23:37:06.579Z,101187.23
2019-02-21T23:39:38.454Z,101199.42
2019-02-21T23:42:02.768Z,101202.80
2019-02-21T23:44:29.920Z,101208.39
2019-02-21T23:46:56.996Z,101229.00
2019-02-21T23:49:24.124Z,101216.98
2019-02-21T23:51:51.736Z,101221.16
2019-02-21T23:54:18.775Z,101227.83
2019-02-21T23:56:45.902Z,101234.20
2019-02-21T23:59:13.135Z,101242.20
